sensor_id;sensor_type;location;lat;lon;timestamp;P1;durP1;ratioP1;P2;durP2;ratioP2
22219;SDS011;11279;48.364;10.904;2023-08-12T00:00:10;6.87;;;4.40;;
22219;SDS011;11279;48.364;10.904;2023-08-12T00:01:11;7.40;;;4.55;;
22219;SDS011;11279;48.364;10.904;2023-08-12T00:02:12;18.67;;;4.73;;
22219;SDS011;11279;48.364;10.904;2023-08-12T00:03:12;7.00;;;4.73;;
22219;SDS011;11279;48.364;10.904;2023-08-12T00:04:13;8.87;;;4.33;;
22219;SDS011;11279;48.364;10.904;2023-08-12T00:05:14;10.18;;;4.40;;
22219;SDS011;11279;48.364;10.904;2023-08-12T00:06:15;7.70;;;4.13;;
22219;SDS011;11279;48.364;10.904;2023-08-12T00:07:15;9.10;;;4.07;;
22219;SDS011;11279;48.364;10.904;2023-08-12T00:08:16;8.83;;;4.60;;
22219;SDS011;11279;48.364;10.904;2023-08-12T00:09:16;6.60;;;3.97;;
22219;SDS011;11279;48.364;10.904;2023-08-12T00:10:18;9.20;;;4.50;;
22219;SDS011;11279;48.364;10.904;2023-08-12T00:11:18;8.93;;;4.70;;
22219;SDS011;11279;48.364;10.904;2023-08-12T00:12:19;9.60;;;4.50;;
22219;SDS011;11279;48.364;10.904;2023-08-12T00:13:19;7.20;;;4.57;;
22219;SDS011;11279;48.364;10.904;2023-08-12T00:14:21;6.35;;;4.40;;
22219;SDS011;11279;48.364;10.904;2023-08-12T00:15:21;8.00;;;4.13;;
22219;SDS011;11279;48.364;10.904;2023-08-12T00:16:22;12.03;;;4.27;;
22219;SDS011;11279;48.364;10.904;2023-08-12T00:17:22;6.63;;;3.83;;
22219;SDS011;11279;48.364;10.904;2023-08-12T00:18:22;7.30;;;4.60;;
22219;SDS011;11279;48.364;10.904;2023-08-12T00:19:23;12.23;;;5.00;;
22219;SDS011;11279;48.364;10.904;2023-08-12T00:20:23;13.77;;;5.00;;
22219;SDS011;11279;48.364;10.904;2023-08-12T00:21:25;9.57;;;4.87;;
22219;SDS011;11279;48.364;10.904;2023-08-12T00:22:25;8.60;;;4.65;;
22219;SDS011;11279;48.364;10.904;2023-08-12T00:23:26;8.00;;;4.43;;
22219;SDS011;11279;48.364;10.904;2023-08-12T00:24:26;8.37;;;4.87;;
22219;SDS011;11279;48.364;10.904;2023-08-12T00:25:27;7.43;;;4.33;;
22219;SDS011;11279;48.364;10.904;2023-08-12T00:26:27;10.70;;;4.60;;
22219;SDS011;11279;48.364;10.904;2023-08-12T00:27:28;8.93;;;4.70;;
22219;SDS011;11279;48.364;10.904;2023-08-12T00:28:28;8.83;;;4.67;;
22219;SDS011;11279;48.364;10.904;2023-08-12T00:29:29;6.47;;;4.40;;
22219;SDS011;11279;48.364;10.904;2023-08-12T00:30:29;10.20;;;4.80;;
22219;SDS011;11279;48.364;10.904;2023-08-12T00:31:30;9.70;;;4.40;;
22219;SDS011;11279;48.364;10.904;2023-08-12T00:32:30;6.23;;;4.40;;
22219;SDS011;11279;48.364;10.904;2023-08-12T00:33:30;8.63;;;4.53;;
22219;SDS011;11279;48.364;10.904;2023-08-12T00:34:31;7.17;;;4.60;;
22219;SDS011;11279;48.364;10.904;2023-08-12T00:35:32;8.43;;;4.20;;
22219;SDS011;11279;48.364;10.904;2023-08-12T00:36:32;8.73;;;4.77;;
22219;SDS011;11279;48.364;10.904;2023-08-12T00:37:33;10.30;;;5.00;;
22219;SDS011;11279;48.364;10.904;2023-08-12T00:38:33;8.53;;;4.60;;
22219;SDS011;11279;48.364;10.904;2023-08-12T00:39:34;8.60;;;5.13;;
22219;SDS011;11279;48.364;10.904;2023-08-12T00:40:34;11.00;;;4.60;;
22219;SDS011;11279;48.364;10.904;2023-08-12T00:41:35;10.17;;;4.70;;
22219;SDS011;11279;48.364;10.904;2023-08-12T00:42:35;7.23;;;4.50;;
22219;SDS011;11279;48.364;10.904;2023-08-12T00:43:36;8.13;;;4.80;;
22219;SDS011;11279;48.364;10.904;2023-08-12T00:44:36;10.63;;;4.83;;
22219;SDS011;11279;48.364;10.904;2023-08-12T00:45:36;7.23;;;4.87;;
22219;SDS011;11279;48.364;10.904;2023-08-12T00:46:38;11.53;;;4.57;;
22219;SDS011;11279;48.364;10.904;2023-08-12T00:47:38;7.95;;;4.97;;
22219;SDS011;11279;48.364;10.904;2023-08-12T00:48:39;8.83;;;4.80;;
22219;SDS011;11279;48.364;10.904;2023-08-12T00:49:40;11.35;;;4.68;;
22219;SDS011;11279;48.364;10.904;2023-08-12T00:50:43;14.25;;;4.90;;
22219;SDS011;11279;48.364;10.904;2023-08-12T00:51:44;6.90;;;4.45;;
22219;SDS011;11279;48.364;10.904;2023-08-12T00:52:46;8.52;;;4.38;;
22219;SDS011;11279;48.364;10.904;2023-08-12T00:53:46;8.37;;;4.73;;
22219;SDS011;11279;48.364;10.904;2023-08-12T00:54:47;9.53;;;4.97;;
22219;SDS011;11279;48.364;10.904;2023-08-12T00:55:47;7.13;;;4.50;;
22219;SDS011;11279;48.364;10.904;2023-08-12T00:56:48;10.47;;;4.83;;
22219;SDS011;11279;48.364;10.904;2023-08-12T00:57:49;8.68;;;4.82;;
22219;SDS011;11279;48.364;10.904;2023-08-12T00:58:50;9.63;;;4.72;;
22219;SDS011;11279;48.364;10.904;2023-08-12T00:59:51;8.30;;;5.10;;
22219;SDS011;11279;48.364;10.904;2023-08-12T01:00:51;10.60;;;4.73;;
22219;SDS011;11279;48.364;10.904;2023-08-12T01:01:52;7.63;;;4.40;;
22219;SDS011;11279;48.364;10.904;2023-08-12T01:02:52;10.17;;;5.50;;
22219;SDS011;11279;48.364;10.904;2023-08-12T01:03:54;8.40;;;4.93;;
22219;SDS011;11279;48.364;10.904;2023-08-12T01:04:54;8.87;;;4.90;;
22219;SDS011;11279;48.364;10.904;2023-08-12T01:05:55;9.53;;;4.57;;
22219;SDS011;11279;48.364;10.904;2023-08-12T01:06:55;8.07;;;4.90;;
22219;SDS011;11279;48.364;10.904;2023-08-12T01:07:56;9.57;;;4.90;;
22219;SDS011;11279;48.364;10.904;2023-08-12T01:08:56;7.90;;;4.70;;
22219;SDS011;11279;48.364;10.904;2023-08-12T01:09:57;9.03;;;5.00;;
22219;SDS011;11279;48.364;10.904;2023-08-12T01:11:00;9.23;;;4.60;;
22219;SDS011;11279;48.364;10.904;2023-08-12T01:12:20;9.10;;;4.68;;
22219;SDS011;11279;48.364;10.904;2023-08-12T01:14:27;8.30;;;4.40;;
22219;SDS011;11279;48.364;10.904;2023-08-12T01:15:30;9.05;;;4.60;;
22219;SDS011;11279;48.364;10.904;2023-08-12T01:16:32;8.17;;;4.80;;
22219;SDS011;11279;48.364;10.904;2023-08-12T01:17:36;8.70;;;4.90;;
22219;SDS011;11279;48.364;10.904;2023-08-12T01:18:37;7.40;;;4.55;;
22219;SDS011;11279;48.364;10.904;2023-08-12T01:19:40;8.02;;;4.47;;
22219;SDS011;11279;48.364;10.904;2023-08-12T01:20:41;7.25;;;4.72;;
22219;SDS011;11279;48.364;10.904;2023-08-12T01:21:43;10.27;;;4.82;;
22219;SDS011;11279;48.364;10.904;2023-08-12T01:22:44;7.03;;;4.78;;
22219;SDS011;11279;48.364;10.904;2023-08-12T01:23:44;7.90;;;4.90;;
22219;SDS011;11279;48.364;10.904;2023-08-12T01:24:46;10.77;;;5.63;;
22219;SDS011;11279;48.364;10.904;2023-08-12T01:25:46;7.73;;;4.40;;
22219;SDS011;11279;48.364;10.904;2023-08-12T01:26:47;8.20;;;4.97;;
22219;SDS011;11279;48.364;10.904;2023-08-12T01:27:47;7.17;;;4.80;;
22219;SDS011;11279;48.364;10.904;2023-08-12T01:28:48;13.77;;;5.00;;
22219;SDS011;11279;48.364;10.904;2023-08-12T01:29:49;8.30;;;5.10;;
22219;SDS011;11279;48.364;10.904;2023-08-12T01:31:08;7.95;;;4.80;;
22219;SDS011;11279;48.364;10.904;2023-08-12T01:33:35;9.25;;;4.90;;
22219;SDS011;11279;48.364;10.904;2023-08-12T01:34:58;9.85;;;5.10;;
22219;SDS011;11279;48.364;10.904;2023-08-12T01:36:09;8.75;;;5.15;;
22219;SDS011;11279;48.364;10.904;2023-08-12T01:37:20;7.75;;;4.63;;
22219;SDS011;11279;48.364;10.904;2023-08-12T01:38:24;8.02;;;5.10;;
22219;SDS011;11279;48.364;10.904;2023-08-12T01:39:27;8.10;;;5.03;;
22219;SDS011;11279;48.364;10.904;2023-08-12T01:40:28;6.93;;;4.60;;
22219;SDS011;11279;48.364;10.904;2023-08-12T01:41:29;10.05;;;5.38;;
22219;SDS011;11279;48.364;10.904;2023-08-12T01:42:30;10.27;;;4.73;;
22219;SDS011;11279;48.364;10.904;2023-08-12T01:43:32;9.93;;;5.22;;
22219;SDS011;11279;48.364;10.904;2023-08-12T01:44:33;7.82;;;4.82;;
22219;SDS011;11279;48.364;10.904;2023-08-12T01:45:34;9.23;;;5.10;;
22219;SDS011;11279;48.364;10.904;2023-08-12T01:46:35;5.95;;;4.57;;
22219;SDS011;11279;48.364;10.904;2023-08-12T01:47:36;10.50;;;4.80;;
22219;SDS011;11279;48.364;10.904;2023-08-12T01:48:36;8.10;;;4.80;;
22219;SDS011;11279;48.364;10.904;2023-08-12T01:49:37;8.83;;;5.27;;
22219;SDS011;11279;48.364;10.904;2023-08-12T01:50:37;7.60;;;5.23;;
22219;SDS011;11279;48.364;10.904;2023-08-12T01:51:38;7.20;;;5.07;;
22219;SDS011;11279;48.364;10.904;2023-08-12T01:52:38;9.90;;;5.00;;
22219;SDS011;11279;48.364;10.904;2023-08-12T01:53:39;7.03;;;5.37;;
22219;SDS011;11279;48.364;10.904;2023-08-12T01:54:39;7.73;;;5.07;;
22219;SDS011;11279;48.364;10.904;2023-08-12T01:55:42;9.20;;;5.10;;
22219;SDS011;11279;48.364;10.904;2023-08-12T01:56:43;9.15;;;4.80;;
22219;SDS011;11279;48.364;10.904;2023-08-12T01:57:43;7.47;;;4.40;;
22219;SDS011;11279;48.364;10.904;2023-08-12T01:58:44;7.20;;;4.80;;
22219;SDS011;11279;48.364;10.904;2023-08-12T01:59:44;8.33;;;4.93;;
22219;SDS011;11279;48.364;10.904;2023-08-12T02:00:45;7.27;;;4.80;;
22219;SDS011;11279;48.364;10.904;2023-08-12T02:01:45;7.73;;;5.30;;
22219;SDS011;11279;48.364;10.904;2023-08-12T02:02:46;9.27;;;5.40;;
22219;SDS011;11279;48.364;10.904;2023-08-12T02:03:46;8.33;;;4.70;;
22219;SDS011;11279;48.364;10.904;2023-08-12T02:04:47;10.97;;;5.40;;
22219;SDS011;11279;48.364;10.904;2023-08-12T02:05:47;6.90;;;4.40;;
22219;SDS011;11279;48.364;10.904;2023-08-12T02:06:48;8.13;;;5.00;;
22219;SDS011;11279;48.364;10.904;2023-08-12T02:07:49;8.98;;;5.05;;
22219;SDS011;11279;48.364;10.904;2023-08-12T02:08:50;9.83;;;4.93;;
22219;SDS011;11279;48.364;10.904;2023-08-12T02:09:51;8.30;;;5.17;;
22219;SDS011;11279;48.364;10.904;2023-08-12T02:10:51;8.17;;;4.50;;
22219;SDS011;11279;48.364;10.904;2023-08-12T02:11:51;9.03;;;4.80;;
22219;SDS011;11279;48.364;10.904;2023-08-12T02:12:52;7.70;;;5.10;;
22219;SDS011;11279;48.364;10.904;2023-08-12T02:13:52;10.80;;;5.30;;
22219;SDS011;11279;48.364;10.904;2023-08-12T02:14:53;14.30;;;5.57;;
22219;SDS011;11279;48.364;10.904;2023-08-12T02:15:53;7.30;;;5.23;;
22219;SDS011;11279;48.364;10.904;2023-08-12T02:16:54;10.10;;;4.97;;
22219;SDS011;11279;48.364;10.904;2023-08-12T02:17:54;9.47;;;5.17;;
22219;SDS011;11279;48.364;10.904;2023-08-12T02:18:54;9.47;;;5.27;;
22219;SDS011;11279;48.364;10.904;2023-08-12T02:19:55;10.63;;;5.97;;
22219;SDS011;11279;48.364;10.904;2023-08-12T02:20:55;8.80;;;5.00;;
22219;SDS011;11279;48.364;10.904;2023-08-12T02:21:56;8.53;;;5.37;;
22219;SDS011;11279;48.364;10.904;2023-08-12T02:22:56;10.47;;;5.00;;
22219;SDS011;11279;48.364;10.904;2023-08-12T02:23:57;9.60;;;5.37;;
22219;SDS011;11279;48.364;10.904;2023-08-12T02:24:57;8.03;;;5.07;;
22219;SDS011;11279;48.364;10.904;2023-08-12T02:25:58;11.83;;;5.27;;
22219;SDS011;11279;48.364;10.904;2023-08-12T02:26:58;10.60;;;5.40;;
22219;SDS011;11279;48.364;10.904;2023-08-12T02:27:59;10.67;;;4.97;;
22219;SDS011;11279;48.364;10.904;2023-08-12T02:28:59;8.00;;;5.37;;
22219;SDS011;11279;48.364;10.904;2023-08-12T02:30:00;9.13;;;5.13;;
22219;SDS011;11279;48.364;10.904;2023-08-12T02:31:00;10.60;;;5.63;;
22219;SDS011;11279;48.364;10.904;2023-08-12T02:32:01;7.35;;;5.05;;
22219;SDS011;11279;48.364;10.904;2023-08-12T02:33:02;8.20;;;5.20;;
22219;SDS011;11279;48.364;10.904;2023-08-12T02:34:02;10.07;;;5.07;;
22219;SDS011;11279;48.364;10.904;2023-08-12T02:35:04;8.95;;;5.57;;
22219;SDS011;11279;48.364;10.904;2023-08-12T02:36:04;10.07;;;5.30;;
22219;SDS011;11279;48.364;10.904;2023-08-12T02:37:05;8.23;;;5.20;;
22219;SDS011;11279;48.364;10.904;2023-08-12T02:38:05;9.90;;;5.23;;
22219;SDS011;11279;48.364;10.904;2023-08-12T02:39:06;8.33;;;5.07;;
22219;SDS011;11279;48.364;10.904;2023-08-12T02:40:06;7.47;;;5.37;;
22219;SDS011;11279;48.364;10.904;2023-08-12T02:41:07;12.63;;;5.65;;
22219;SDS011;11279;48.364;10.904;2023-08-12T02:42:08;10.20;;;5.03;;
22219;SDS011;11279;48.364;10.904;2023-08-12T02:43:08;7.97;;;5.50;;
22219;SDS011;11279;48.364;10.904;2023-08-12T02:44:10;7.88;;;5.22;;
22219;SDS011;11279;48.364;10.904;2023-08-12T02:45:11;8.87;;;5.57;;
22219;SDS011;11279;48.364;10.904;2023-08-12T02:46:11;7.63;;;5.30;;
22219;SDS011;11279;48.364;10.904;2023-08-12T02:47:13;8.93;;;5.63;;
22219;SDS011;11279;48.364;10.904;2023-08-12T02:48:13;7.53;;;5.50;;
22219;SDS011;11279;48.364;10.904;2023-08-12T02:49:13;10.80;;;5.43;;
22219;SDS011;11279;48.364;10.904;2023-08-12T02:50:14;10.50;;;5.60;;
22219;SDS011;11279;48.364;10.904;2023-08-12T02:51:14;7.83;;;5.80;;
22219;SDS011;11279;48.364;10.904;2023-08-12T02:52:15;8.73;;;5.60;;
22219;SDS011;11279;48.364;10.904;2023-08-12T02:53:15;8.87;;;5.57;;
22219;SDS011;11279;48.364;10.904;2023-08-12T02:54:16;7.17;;;5.10;;
22219;SDS011;11279;48.364;10.904;2023-08-12T02:55:16;9.53;;;5.70;;
22219;SDS011;11279;48.364;10.904;2023-08-12T02:56:17;8.37;;;5.87;;
22219;SDS011;11279;48.364;10.904;2023-08-12T02:57:17;7.73;;;5.13;;
22219;SDS011;11279;48.364;10.904;2023-08-12T02:58:18;7.57;;;5.27;;
22219;SDS011;11279;48.364;10.904;2023-08-12T02:59:19;9.53;;;5.30;;
22219;SDS011;11279;48.364;10.904;2023-08-12T03:00:19;8.57;;;5.73;;
22219;SDS011;11279;48.364;10.904;2023-08-12T03:01:20;10.83;;;5.50;;
22219;SDS011;11279;48.364;10.904;2023-08-12T03:02:21;8.38;;;5.55;;
22219;SDS011;11279;48.364;10.904;2023-08-12T03:03:21;14.97;;;6.00;;
22219;SDS011;11279;48.364;10.904;2023-08-12T03:04:22;7.60;;;5.30;;
22219;SDS011;11279;48.364;10.904;2023-08-12T03:05:22;9.87;;;5.30;;
22219;SDS011;11279;48.364;10.904;2023-08-12T03:06:23;7.37;;;5.50;;
22219;SDS011;11279;48.364;10.904;2023-08-12T03:07:23;9.43;;;5.47;;
22219;SDS011;11279;48.364;10.904;2023-08-12T03:08:24;10.03;;;5.63;;
22219;SDS011;11279;48.364;10.904;2023-08-12T03:09:24;10.73;;;5.20;;
22219;SDS011;11279;48.364;10.904;2023-08-12T03:10:25;8.07;;;5.40;;
22219;SDS011;11279;48.364;10.904;2023-08-12T03:11:25;8.57;;;5.77;;
22219;SDS011;11279;48.364;10.904;2023-08-12T03:12:26;8.47;;;6.20;;
22219;SDS011;11279;48.364;10.904;2023-08-12T03:13:26;8.10;;;5.37;;
22219;SDS011;11279;48.364;10.904;2023-08-12T03:14:28;10.68;;;6.13;;
22219;SDS011;11279;48.364;10.904;2023-08-12T03:15:29;13.55;;;5.93;;
22219;SDS011;11279;48.364;10.904;2023-08-12T03:16:30;12.93;;;6.50;;
22219;SDS011;11279;48.364;10.904;2023-08-12T03:17:30;13.10;;;6.50;;
22219;SDS011;11279;48.364;10.904;2023-08-12T03:18:31;9.53;;;5.80;;
22219;SDS011;11279;48.364;10.904;2023-08-12T03:19:31;8.33;;;5.97;;
22219;SDS011;11279;48.364;10.904;2023-08-12T03:20:32;9.30;;;6.03;;
22219;SDS011;11279;48.364;10.904;2023-08-12T03:21:32;10.07;;;6.60;;
22219;SDS011;11279;48.364;10.904;2023-08-12T03:22:35;8.73;;;5.75;;
22219;SDS011;11279;48.364;10.904;2023-08-12T03:23:37;8.07;;;5.85;;
22219;SDS011;11279;48.364;10.904;2023-08-12T03:24:38;9.03;;;5.90;;
22219;SDS011;11279;48.364;10.904;2023-08-12T03:25:38;8.73;;;5.93;;
22219;SDS011;11279;48.364;10.904;2023-08-12T03:26:38;12.03;;;6.70;;
22219;SDS011;11279;48.364;10.904;2023-08-12T03:27:39;7.57;;;5.90;;
22219;SDS011;11279;48.364;10.904;2023-08-12T03:28:39;9.07;;;5.90;;
22219;SDS011;11279;48.364;10.904;2023-08-12T03:29:40;8.23;;;6.17;;
22219;SDS011;11279;48.364;10.904;2023-08-12T03:30:40;9.17;;;6.10;;
22219;SDS011;11279;48.364;10.904;2023-08-12T03:31:41;13.67;;;6.77;;
22219;SDS011;11279;48.364;10.904;2023-08-12T03:32:41;8.47;;;5.87;;
22219;SDS011;11279;48.364;10.904;2023-08-12T03:33:41;10.77;;;6.33;;
22219;SDS011;11279;48.364;10.904;2023-08-12T03:34:42;9.80;;;6.00;;
22219;SDS011;11279;48.364;10.904;2023-08-12T03:35:46;12.40;;;6.87;;
22219;SDS011;11279;48.364;10.904;2023-08-12T03:36:47;10.77;;;6.45;;
22219;SDS011;11279;48.364;10.904;2023-08-12T03:37:48;11.30;;;6.10;;
22219;SDS011;11279;48.364;10.904;2023-08-12T03:38:51;11.35;;;6.18;;
22219;SDS011;11279;48.364;10.904;2023-08-12T03:39:51;9.77;;;6.10;;
22219;SDS011;11279;48.364;10.904;2023-08-12T03:40:52;9.93;;;6.13;;
22219;SDS011;11279;48.364;10.904;2023-08-12T03:41:52;10.23;;;5.83;;
22219;SDS011;11279;48.364;10.904;2023-08-12T03:42:53;10.13;;;6.23;;
22219;SDS011;11279;48.364;10.904;2023-08-12T03:43:53;9.77;;;6.53;;
22219;SDS011;11279;48.364;10.904;2023-08-12T03:44:54;8.60;;;5.80;;
22219;SDS011;11279;48.364;10.904;2023-08-12T03:45:54;9.37;;;6.23;;
22219;SDS011;11279;48.364;10.904;2023-08-12T03:46:55;11.67;;;6.23;;
22219;SDS011;11279;48.364;10.904;2023-08-12T03:47:55;9.80;;;6.00;;
22219;SDS011;11279;48.364;10.904;2023-08-12T03:48:56;11.37;;;6.33;;
22219;SDS011;11279;48.364;10.904;2023-08-12T03:49:56;12.77;;;6.60;;
22219;SDS011;11279;48.364;10.904;2023-08-12T03:50:57;9.03;;;6.30;;
22219;SDS011;11279;48.364;10.904;2023-08-12T03:51:57;7.13;;;5.63;;
22219;SDS011;11279;48.364;10.904;2023-08-12T03:52:58;7.80;;;6.00;;
22219;SDS011;11279;48.364;10.904;2023-08-12T03:53:58;10.73;;;6.23;;
22219;SDS011;11279;48.364;10.904;2023-08-12T03:54:59;11.77;;;6.80;;
22219;SDS011;11279;48.364;10.904;2023-08-12T03:55:59;9.57;;;6.73;;
22219;SDS011;11279;48.364;10.904;2023-08-12T03:57:00;10.60;;;6.10;;
22219;SDS011;11279;48.364;10.904;2023-08-12T03:58:00;11.30;;;6.77;;
22219;SDS011;11279;48.364;10.904;2023-08-12T03:59:01;9.70;;;6.33;;
22219;SDS011;11279;48.364;10.904;2023-08-12T04:00:03;8.70;;;6.43;;
22219;SDS011;11279;48.364;10.904;2023-08-12T04:01:04;11.30;;;7.10;;
22219;SDS011;11279;48.364;10.904;2023-08-12T04:02:04;15.63;;;9.30;;
22219;SDS011;11279;48.364;10.904;2023-08-12T04:03:06;11.43;;;7.55;;
22219;SDS011;11279;48.364;10.904;2023-08-12T04:04:06;11.87;;;6.57;;
22219;SDS011;11279;48.364;10.904;2023-08-12T04:05:07;10.63;;;6.40;;
22219;SDS011;11279;48.364;10.904;2023-08-12T04:06:07;9.20;;;6.53;;
22219;SDS011;11279;48.364;10.904;2023-08-12T04:07:08;9.37;;;6.73;;
22219;SDS011;11279;48.364;10.904;2023-08-12T04:08:08;12.07;;;7.57;;
22219;SDS011;11279;48.364;10.904;2023-08-12T04:09:09;9.50;;;6.13;;
22219;SDS011;11279;48.364;10.904;2023-08-12T04:10:09;10.27;;;6.80;;
22219;SDS011;11279;48.364;10.904;2023-08-12T04:11:10;11.97;;;6.73;;
22219;SDS011;11279;48.364;10.904;2023-08-12T04:12:10;10.17;;;6.97;;
22219;SDS011;11279;48.364;10.904;2023-08-12T04:13:11;11.13;;;6.83;;
22219;SDS011;11279;48.364;10.904;2023-08-12T04:14:14;11.00;;;6.80;;
22219;SDS011;11279;48.364;10.904;2023-08-12T04:15:15;12.00;;;7.70;;
22219;SDS011;11279;48.364;10.904;2023-08-12T04:16:15;10.13;;;6.30;;
22219;SDS011;11279;48.364;10.904;2023-08-12T04:17:16;10.07;;;6.63;;
22219;SDS011;11279;48.364;10.904;2023-08-12T04:18:16;11.70;;;7.00;;
22219;SDS011;11279;48.364;10.904;2023-08-12T04:19:17;10.10;;;6.60;;
22219;SDS011;11279;48.364;10.904;2023-08-12T04:20:17;10.00;;;6.83;;
22219;SDS011;11279;48.364;10.904;2023-08-12T04:21:18;11.50;;;6.87;;
22219;SDS011;11279;48.364;10.904;2023-08-12T04:22:18;13.40;;;7.13;;
22219;SDS011;11279;48.364;10.904;2023-08-12T04:23:19;10.80;;;7.27;;
22219;SDS011;11279;48.364;10.904;2023-08-12T04:24:19;9.17;;;6.63;;
22219;SDS011;11279;48.364;10.904;2023-08-12T04:25:21;10.70;;;6.93;;
22219;SDS011;11279;48.364;10.904;2023-08-12T04:26:21;13.75;;;7.22;;
22219;SDS011;11279;48.364;10.904;2023-08-12T04:27:22;13.83;;;6.93;;
22219;SDS011;11279;48.364;10.904;2023-08-12T04:28:22;11.07;;;6.87;;
22219;SDS011;11279;48.364;10.904;2023-08-12T04:29:23;11.47;;;7.60;;
22219;SDS011;11279;48.364;10.904;2023-08-12T04:30:23;9.57;;;6.20;;
22219;SDS011;11279;48.364;10.904;2023-08-12T04:31:24;12.87;;;6.80;;
22219;SDS011;11279;48.364;10.904;2023-08-12T04:32:24;12.60;;;7.07;;
22219;SDS011;11279;48.364;10.904;2023-08-12T04:33:25;8.53;;;6.13;;
22219;SDS011;11279;48.364;10.904;2023-08-12T04:34:25;8.87;;;6.43;;
22219;SDS011;11279;48.364;10.904;2023-08-12T04:35:25;10.00;;;7.03;;
22219;SDS011;11279;48.364;10.904;2023-08-12T04:36:26;11.37;;;6.80;;
22219;SDS011;11279;48.364;10.904;2023-08-12T04:37:27;10.10;;;6.73;;
22219;SDS011;11279;48.364;10.904;2023-08-12T04:38:28;12.98;;;7.32;;
22219;SDS011;11279;48.364;10.904;2023-08-12T04:39:29;10.30;;;6.73;;
22219;SDS011;11279;48.364;10.904;2023-08-12T04:40:29;12.10;;;6.63;;
22219;SDS011;11279;48.364;10.904;2023-08-12T04:41:30;9.40;;;6.20;;
22219;SDS011;11279;48.364;10.904;2023-08-12T04:42:30;11.40;;;6.80;;
22219;SDS011;11279;48.364;10.904;2023-08-12T04:43:31;10.20;;;6.57;;
22219;SDS011;11279;48.364;10.904;2023-08-12T04:44:32;10.93;;;6.53;;
22219;SDS011;11279;48.364;10.904;2023-08-12T04:45:32;10.50;;;6.33;;
22219;SDS011;11279;48.364;10.904;2023-08-12T04:46:32;11.07;;;6.27;;
22219;SDS011;11279;48.364;10.904;2023-08-12T04:47:33;10.60;;;6.40;;
22219;SDS011;11279;48.364;10.904;2023-08-12T04:48:33;11.83;;;6.67;;
22219;SDS011;11279;48.364;10.904;2023-08-12T04:49:34;9.13;;;6.17;;
22219;SDS011;11279;48.364;10.904;2023-08-12T04:50:34;11.77;;;6.70;;
22219;SDS011;11279;48.364;10.904;2023-08-12T04:51:35;8.57;;;5.83;;
22219;SDS011;11279;48.364;10.904;2023-08-12T04:52:35;11.67;;;6.87;;
22219;SDS011;11279;48.364;10.904;2023-08-12T04:53:36;9.13;;;6.53;;
22219;SDS011;11279;48.364;10.904;2023-08-12T04:54:36;10.33;;;6.30;;
22219;SDS011;11279;48.364;10.904;2023-08-12T04:55:36;13.10;;;7.30;;
22219;SDS011;11279;48.364;10.904;2023-08-12T04:56:38;10.57;;;6.30;;
22219;SDS011;11279;48.364;10.904;2023-08-12T04:57:38;10.77;;;6.30;;
22219;SDS011;11279;48.364;10.904;2023-08-12T04:58:39;11.07;;;6.83;;
22219;SDS011;11279;48.364;10.904;2023-08-12T04:59:39;8.70;;;6.43;;
22219;SDS011;11279;48.364;10.904;2023-08-12T05:00:40;11.63;;;6.50;;
22219;SDS011;11279;48.364;10.904;2023-08-12T05:01:40;12.70;;;6.70;;
22219;SDS011;11279;48.364;10.904;2023-08-12T05:02:41;9.67;;;6.13;;
22219;SDS011;11279;48.364;10.904;2023-08-12T05:03:41;10.63;;;6.03;;
22219;SDS011;11279;48.364;10.904;2023-08-12T05:04:42;8.73;;;6.07;;
22219;SDS011;11279;48.364;10.904;2023-08-12T05:05:42;11.13;;;5.97;;
22219;SDS011;11279;48.364;10.904;2023-08-12T05:06:42;8.67;;;5.70;;
22219;SDS011;11279;48.364;10.904;2023-08-12T05:07:43;7.87;;;5.50;;
22219;SDS011;11279;48.364;10.904;2023-08-12T05:08:44;9.88;;;6.05;;
22219;SDS011;11279;48.364;10.904;2023-08-12T05:09:45;7.47;;;5.57;;
22219;SDS011;11279;48.364;10.904;2023-08-12T05:10:48;7.93;;;5.97;;
22219;SDS011;11279;48.364;10.904;2023-08-12T05:11:49;9.70;;;6.15;;
22219;SDS011;11279;48.364;10.904;2023-08-12T05:12:49;11.30;;;5.47;;
22219;SDS011;11279;48.364;10.904;2023-08-12T05:13:52;7.25;;;5.35;;
22219;SDS011;11279;48.364;10.904;2023-08-12T05:14:52;9.43;;;5.80;;
22219;SDS011;11279;48.364;10.904;2023-08-12T05:15:53;9.70;;;6.07;;
22219;SDS011;11279;48.364;10.904;2023-08-12T05:16:53;11.37;;;6.13;;
22219;SDS011;11279;48.364;10.904;2023-08-12T05:17:54;8.10;;;5.17;;
22219;SDS011;11279;48.364;10.904;2023-08-12T05:18:54;9.03;;;5.97;;
22219;SDS011;11279;48.364;10.904;2023-08-12T05:19:55;8.37;;;5.13;;
22219;SDS011;11279;48.364;10.904;2023-08-12T05:20:55;10.77;;;5.77;;
22219;SDS011;11279;48.364;10.904;2023-08-12T05:21:57;7.97;;;5.25;;
22219;SDS011;11279;48.364;10.904;2023-08-12T05:22:57;9.13;;;5.57;;
22219;SDS011;11279;48.364;10.904;2023-08-12T05:23:58;10.10;;;6.40;;
22219;SDS011;11279;48.364;10.904;2023-08-12T05:24:58;9.33;;;5.50;;
22219;SDS011;11279;48.364;10.904;2023-08-12T05:25:58;10.27;;;5.43;;
22219;SDS011;11279;48.364;10.904;2023-08-12T05:26:59;9.00;;;5.73;;
22219;SDS011;11279;48.364;10.904;2023-08-12T05:27:59;9.50;;;5.63;;
22219;SDS011;11279;48.364;10.904;2023-08-12T05:29:00;11.03;;;6.07;;
22219;SDS011;11279;48.364;10.904;2023-08-12T05:30:00;10.07;;;6.07;;
22219;SDS011;11279;48.364;10.904;2023-08-12T05:31:01;8.33;;;5.50;;
22219;SDS011;11279;48.364;10.904;2023-08-12T05:32:01;5.93;;;4.83;;
22219;SDS011;11279;48.364;10.904;2023-08-12T05:33:02;9.17;;;5.43;;
22219;SDS011;11279;48.364;10.904;2023-08-12T05:34:02;8.07;;;5.30;;
22219;SDS011;11279;48.364;10.904;2023-08-12T05:35:03;11.33;;;5.67;;
22219;SDS011;11279;48.364;10.904;2023-08-12T05:36:04;7.53;;;5.07;;
22219;SDS011;11279;48.364;10.904;2023-08-12T05:37:04;8.60;;;5.63;;
22219;SDS011;11279;48.364;10.904;2023-08-12T05:38:05;8.27;;;5.70;;
22219;SDS011;11279;48.364;10.904;2023-08-12T05:39:05;9.20;;;5.47;;
22219;SDS011;11279;48.364;10.904;2023-08-12T05:40:07;7.17;;;5.40;;
22219;SDS011;11279;48.364;10.904;2023-08-12T05:41:08;7.85;;;5.60;;
22219;SDS011;11279;48.364;10.904;2023-08-12T05:42:09;7.97;;;5.10;;
22219;SDS011;11279;48.364;10.904;2023-08-12T05:43:09;9.50;;;5.30;;
22219;SDS011;11279;48.364;10.904;2023-08-12T05:44:10;8.80;;;5.80;;
22219;SDS011;11279;48.364;10.904;2023-08-12T05:45:10;8.83;;;5.00;;
22219;SDS011;11279;48.364;10.904;2023-08-12T05:46:11;9.43;;;5.43;;
22219;SDS011;11279;48.364;10.904;2023-08-12T05:47:11;6.80;;;5.40;;
22219;SDS011;11279;48.364;10.904;2023-08-12T05:48:12;10.97;;;5.83;;
22219;SDS011;11279;48.364;10.904;2023-08-12T05:49:12;8.13;;;5.33;;
22219;SDS011;11279;48.364;10.904;2023-08-12T05:50:12;8.13;;;5.47;;
22219;SDS011;11279;48.364;10.904;2023-08-12T05:51:13;8.43;;;5.30;;
22219;SDS011;11279;48.364;10.904;2023-08-12T05:52:13;7.73;;;5.30;;
22219;SDS011;11279;48.364;10.904;2023-08-12T05:53:14;9.17;;;5.47;;
22219;SDS011;11279;48.364;10.904;2023-08-12T05:54:14;7.27;;;5.40;;
22219;SDS011;11279;48.364;10.904;2023-08-12T05:55:15;7.37;;;5.13;;
22219;SDS011;11279;48.364;10.904;2023-08-12T05:56:15;12.50;;;5.23;;
22219;SDS011;11279;48.364;10.904;2023-08-12T05:57:16;8.80;;;5.90;;
22219;SDS011;11279;48.364;10.904;2023-08-12T05:58:16;8.03;;;5.40;;
22219;SDS011;11279;48.364;10.904;2023-08-12T05:59:16;8.97;;;5.50;;
22219;SDS011;11279;48.364;10.904;2023-08-12T06:00:17;10.27;;;5.47;;
22219;SDS011;11279;48.364;10.904;2023-08-12T06:01:17;8.27;;;6.00;;
22219;SDS011;11279;48.364;10.904;2023-08-12T06:02:19;8.63;;;5.38;;